RPMZ

Details ICAO RPMZ (ZAM)
Name ZAMBOANGA INTL
Region Philippines
Timezone Asia/Manila (UTC+8.0)
Plans Departing 20
Arriving 25
Stats Elevation 33 ft / 10 m (AMSL)
Location 6.922421° 122.059635°
Runways 1
Magnetic Variation 0.830° W
Sunrise 2018-05-27 21:35:55 UTC / 2018-05-28 05:35:55 Local
Sunset 2018-05-28 10:04:57 UTC / 2018-05-28 18:04:57 Local
Advertisement - Login to hide

Runways

ID Width Length Bearing (true) Bearing (mag) Surface Threshold Offset Overrun Length
09 144 ft / 44 m 8,553 ft / 2,607 m 93.85° 94.68° Asphalt 0 ft / 0 m 0 ft / 0 m
27 144 ft / 44 m 8,553 ft / 2,607 m 273.85° 274.68° Asphalt 0 ft / 0 m 0 ft / 0 m

Approach Navaids

Runway Type Ident Frequency Range Bearing (true) Bearing (mag) Slope Elevation
09 Localiser IZAM 109.10 MHz 18 nm / 33 km 93.85° 94.68° - 20 ft / 6 m (AMSL)
09 Glidescope IZAM 109.10 MHz 10 nm / 19 km 93.85° 94.68° 3.10° 30 ft / 9 m (AMSL)
09 DME IZAM 109.10 MHz 18 nm / 33 km - - - 33 ft / 10 m (AMSL)

Map

Weather


0- 5 10 15 20 25 30 35+ Temperature / ° C

Clouds and Precipitation
Forecast for 2018-05-27 18:00 UTC. Updated an hour ago

Ground ~20,000 ft ~40,000 ft Winds

METAR

Not found

TAF

TAF RPMZ 271700Z 2718/2818 27004KT 9999 FEW017 BKN090 TEMPO 2718/2724 00000KT FEW016CB FEW017 BKN090

Frequencies

Tower 118.10 MHz TWR
Approach 122.70 MHz APP
Tower 123.50 MHz TWR
Warning: Do not use this data for real-world aviation or navigation. No guarantee of current accuracy is given.